Time;durP1;ratioP1;P1;durP2;ratioP2;P2;SDS_P1;SDS_P2;PMS_P1;PMS_P2;Temp;Humidity;BMP_temperature;BMP_pressure;BME280_temperature;BME280_humidity;BME280_pressure;Samples;Min_cycle;Max_cycle;Signal;HPM_P1;HPM_P2
2022/05/18 00:00:54;;;;;;;5.80;1.47;;;18.90;99.90;;;;;;5033649;28;20177;-39
2022/05/18 00:03:23;;;;;;;2.87;1.70;;;18.90;99.90;;;;;;5034325;28;20227;-42
2022/05/18 00:05:49;;;;;;;5.63;1.77;;;18.80;99.90;;;;;;5033371;28;20169;-40
2022/05/18 00:08:15;;;;;;;4.53;1.90;;;18.80;99.90;;;;;;5033118;28;20244;-41
2022/05/18 00:10:45;;;;;;;4.23;1.70;;;18.70;99.90;;;;;;5033378;28;20600;-41
2022/05/18 00:13:11;;;;;;;3.57;1.73;;;18.70;99.90;;;;;;5033220;28;20260;-41
2022/05/18 00:15:38;;;;;;;5.83;1.50;;;18.60;99.90;;;;;;5033489;28;20206;-41
2022/05/18 00:18:04;;;;;;;2.40;1.80;;;18.60;99.90;;;;;;5033052;28;20745;-39
2022/05/18 00:20:30;;;;;;;5.50;1.57;;;18.50;99.90;;;;;;5033156;28;20187;-41
2022/05/18 00:22:58;;;;;;;2.87;1.80;;;18.50;99.90;;;;;;5033183;28;20180;-42
2022/05/18 00:25:27;;;;;;;6.37;1.90;;;18.40;99.90;;;;;;5031985;28;20183;-41
2022/05/18 00:27:53;;;;;;;4.27;1.57;;;18.40;99.90;;;;;;5033327;28;20274;-40
2022/05/18 00:30:21;;;;;;;3.40;1.80;;;18.30;99.90;;;;;;5033099;28;20173;-43
2022/05/18 00:32:47;;;;;;;2.63;1.50;;;18.30;99.90;;;;;;5033104;28;20177;-41
2022/05/18 00:35:14;;;;;;;2.47;1.73;;;18.20;99.90;;;;;;5032974;28;20674;-42
2022/05/18 00:37:40;;;;;;;4.03;1.60;;;18.20;99.90;;;;;;5033575;28;20217;-43
2022/05/18 00:40:08;;;;;;;2.37;1.53;;;18.20;99.90;;;;;;5037049;28;20520;-44
2022/05/18 00:42:34;;;;;;;1.73;1.43;;;18.10;99.90;;;;;;5036831;28;20187;-42
2022/05/18 00:45:00;;;;;;;2.43;1.17;;;18.00;99.90;;;;;;5037065;28;20180;-41
2022/05/18 00:47:25;;;;;;;2.67;1.57;;;18.00;99.90;;;;;;5037041;28;20719;-42
2022/05/18 00:50:18;;;;;;;2.63;1.60;;;17.90;99.90;;;;;;5036826;28;20266;-43
2022/05/18 00:52:51;;;;;;;2.33;1.50;;;17.90;99.90;;;;;;5036530;28;20686;-40
2022/05/18 00:55:21;;;;;;;3.77;1.43;;;17.90;99.90;;;;;;5036814;28;20645;-41
2022/05/18 00:58:21;;;;;;;3.67;1.53;;;17.80;99.90;;;;;;5037087;28;20240;-41
2022/05/18 01:00:50;;;;;;;1.77;1.47;;;17.80;99.90;;;;;;5037179;28;20180;-42
2022/05/18 01:03:40;;;;;;;4.87;1.77;;;17.70;99.90;;;;;;5035437;28;20586;-43
2022/05/18 01:06:40;;;;;;;3.13;1.53;;;17.60;99.90;;;;;;5036918;28;20173;-42
2022/05/18 01:09:29;;;;;;;3.57;1.60;;;17.60;99.90;;;;;;5036494;28;20200;-45
2022/05/18 01:11:57;;;;;;;4.20;1.80;;;17.50;99.90;;;;;;5036480;28;20176;-43
2022/05/18 01:14:28;;;;;;;3.00;1.80;;;17.50;99.90;;;;;;5036529;28;20173;-46
2022/05/18 01:16:54;;;;;;;4.97;1.80;;;17.40;99.90;;;;;;5036799;28;20291;-44
2022/05/18 01:19:39;;;;;;;3.87;1.53;;;17.40;99.90;;;;;;5036337;28;20185;-45
2022/05/18 01:22:20;;;;;;;3.60;1.90;;;17.30;99.90;;;;;;5035841;28;20165;-45
2022/05/18 01:24:58;;;;;;;4.00;2.00;;;17.30;99.90;;;;;;5036632;28;20566;-44
2022/05/18 01:27:25;;;;;;;4.43;1.67;;;17.30;99.90;;;;;;5036728;28;20573;-45
2022/05/18 01:29:52;;;;;;;3.57;1.70;;;17.20;99.90;;;;;;5034957;28;20267;-45
2022/05/18 01:32:18;;;;;;;3.40;2.00;;;17.20;99.90;;;;;;5036455;28;20561;-44
2022/05/18 01:34:44;;;;;;;3.47;1.70;;;17.20;99.90;;;;;;5036204;28;20177;-44
2022/05/18 01:37:12;;;;;;;3.47;1.90;;;17.20;99.90;;;;;;5036375;28;20205;-45
2022/05/18 01:39:48;;;;;;;2.03;1.80;;;17.10;99.90;;;;;;5036007;28;20231;-43
2022/05/18 01:42:14;;;;;;;2.00;1.60;;;17.10;99.90;;;;;;5036069;28;20171;-44
2022/05/18 01:44:40;;;;;;;2.77;1.97;;;17.10;99.90;;;;;;5035868;28;20177;-45
2022/05/18 01:47:07;;;;;;;2.37;1.63;;;17.00;99.90;;;;;;5034478;28;20676;-44
2022/05/18 01:49:36;;;;;;;3.03;1.70;;;17.00;99.90;;;;;;5035277;28;20664;-44
2022/05/18 01:52:02;;;;;;;2.43;1.47;;;16.90;99.90;;;;;;5035983;28;20616;-44
2022/05/18 01:54:28;;;;;;;1.60;1.40;;;16.90;99.90;;;;;;5035887;28;20188;-44
2022/05/18 01:56:54;;;;;;;2.37;1.70;;;16.80;99.90;;;;;;5035493;28;20204;-43
2022/05/18 01:59:19;;;;;;;5.07;1.60;;;16.70;99.90;;;;;;5035583;28;20173;-44
2022/05/18 02:01:45;;;;;;;3.13;1.83;;;16.70;99.90;;;;;;5036063;28;20172;-43
2022/05/18 02:04:13;;;;;;;2.37;1.70;;;16.60;99.90;;;;;;5035577;28;20172;-44
2022/05/18 02:06:39;;;;;;;4.10;1.93;;;16.60;99.90;;;;;;5035254;28;20649;-42
2022/05/18 02:09:05;;;;;;;4.60;1.93;;;16.50;99.90;;;;;;5034536;28;20209;-45
2022/05/18 02:11:33;;;;;;;2.03;1.70;;;16.50;99.90;;;;;;5035561;28;20169;-44
2022/05/18 02:13:58;;;;;;;4.37;1.87;;;16.40;99.90;;;;;;5035582;28;20184;-43
2022/05/18 02:16:24;;;;;;;1.70;1.60;;;16.40;99.90;;;;;;5035203;28;20196;-42
2022/05/18 02:18:50;;;;;;;5.33;1.83;;;16.30;99.90;;;;;;5033834;28;20699;-44
2022/05/18 02:21:16;;;;;;;3.57;1.70;;;16.30;99.90;;;;;;5035245;28;20521;-42
2022/05/18 02:23:42;;;;;;;2.17;1.83;;;16.30;99.90;;;;;;5033858;28;20690;-44
2022/05/18 02:26:08;;;;;;;3.27;1.80;;;16.30;99.90;;;;;;5035173;28;20255;-42
2022/05/18 02:28:33;;;;;;;4.47;1.87;;;16.30;99.90;;;;;;5034969;28;20197;-44
2022/05/18 02:30:59;;;;;;;5.20;2.00;;;16.20;99.90;;;;;;5034902;28;20181;-45
2022/05/18 02:33:24;;;;;;;2.13;1.63;;;16.20;99.90;;;;;;5034965;28;20176;-44
2022/05/18 02:35:50;;;;;;;3.20;1.57;;;16.10;99.90;;;;;;5034916;28;20273;-44
2022/05/18 02:38:15;;;;;;;6.60;1.93;;;16.10;99.90;;;;;;5034756;28;20189;-42
2022/05/18 02:40:41;;;;;;;3.80;2.30;;;16.00;99.90;;;;;;5033579;28;20173;-44
2022/05/18 02:43:07;;;;;;;4.50;2.13;;;16.00;99.90;;;;;;5035668;28;20636;-43
2022/05/18 02:45:32;;;;;;;2.70;1.60;;;16.00;99.90;;;;;;5034756;28;20199;-44
2022/05/18 02:47:58;;;;;;;4.97;1.97;;;16.00;99.90;;;;;;5034654;28;20197;-44
2022/05/18 02:50:23;;;;;;;4.50;2.10;;;15.90;99.90;;;;;;5035198;28;20185;-43
2022/05/18 02:52:49;;;;;;;3.63;1.73;;;15.90;99.90;;;;;;5034571;28;20645;-43
2022/05/18 02:57:59;;;;;;;2.73;2.20;;;15.90;99.90;;;;;;5034444;28;20223;-42
2022/05/18 03:00:25;;;;;;;4.27;2.23;;;15.80;99.90;;;;;;5033585;28;20173;-40
2022/05/18 03:02:51;;;;;;;3.13;2.13;;;15.80;99.90;;;;;;5034824;28;20268;-39
2022/05/18 03:05:17;;;;;;;3.63;2.00;;;15.70;99.90;;;;;;5034289;28;20740;-41
2022/05/18 03:07:43;;;;;;;3.03;2.43;;;15.70;99.90;;;;;;5034156;28;20220;-42
2022/05/18 03:10:09;;;;;;;4.80;2.13;;;15.70;99.90;;;;;;5049262;22;20339;-44
2022/05/18 03:12:35;;;;;;;4.03;2.00;;;15.70;99.90;;;;;;5034625;28;20195;-44
2022/05/18 03:15:01;;;;;;;4.87;2.13;;;15.70;99.90;;;;;;5034708;28;20264;-44
2022/05/18 03:17:26;;;;;;;2.83;1.90;;;15.60;99.90;;;;;;5034790;28;20208;-45
2022/05/18 03:19:52;;;;;;;3.77;1.87;;;15.60;99.90;;;;;;5034570;28;20196;-45
2022/05/18 03:25:02;;;;;;;2.17;1.80;;;15.50;99.90;;;;;;5034261;28;20233;-45
2022/05/18 03:27:28;;;;;;;3.20;2.00;;;15.50;99.90;;;;;;5034541;28;20196;-43
2022/05/18 03:29:54;;;;;;;4.40;1.97;;;15.50;99.90;;;;;;5034007;28;20526;-43
2022/05/18 03:32:22;;;;;;;4.07;1.93;;;15.50;99.90;;;;;;5032744;28;20184;-43
2022/05/18 03:34:49;;;;;;;5.70;2.13;;;15.50;99.90;;;;;;5034449;28;20185;-46
2022/05/18 03:37:16;;;;;;;3.30;1.93;;;15.40;99.90;;;;;;5033959;28;20219;-42
2022/05/18 03:39:42;;;;;;;2.63;1.83;;;15.40;99.90;;;;;;5034173;28;20537;-44
2022/05/18 03:42:08;;;;;;;5.53;2.00;;;15.40;99.90;;;;;;5033798;28;20170;-45
2022/05/18 03:44:33;;;;;;;4.80;2.60;;;15.40;99.90;;;;;;5033912;28;20256;-44
2022/05/18 03:46:59;;;;;;;2.07;1.87;;;15.30;99.90;;;;;;5033541;28;20207;-43
2022/05/18 03:49:24;;;;;;;2.10;1.80;;;15.30;99.90;;;;;;5033595;28;20192;-44
2022/05/18 03:51:50;;;;;;;6.30;2.50;;;15.30;99.90;;;;;;5033614;28;20578;-43
2022/05/18 03:54:16;;;;;;;2.30;2.10;;;15.30;99.90;;;;;;5033871;28;20181;-43
2022/05/18 03:56:42;;;;;;;2.20;2.00;;;15.30;99.90;;;;;;5033404;28;20204;-42
2022/05/18 03:59:07;;;;;;;4.93;2.20;;;15.30;99.90;;;;;;5033768;28;20192;-44
2022/05/18 04:01:33;;;;;;;2.87;1.90;;;15.20;99.90;;;;;;5033817;28;20161;-45
2022/05/18 04:03:59;;;;;;;3.73;2.20;;;15.30;99.90;;;;;;5033698;28;20184;-43
2022/05/18 04:06:24;;;;;;;3.57;2.37;;;15.30;99.90;;;;;;5032184;28;20212;-44
2022/05/18 04:08:50;;;;;;;3.07;2.33;;;15.30;99.90;;;;;;5033894;28;20213;-43
2022/05/18 04:11:16;;;;;;;3.50;2.20;;;15.20;99.90;;;;;;5033308;28;20165;-42
2022/05/18 04:13:41;;;;;;;4.40;2.23;;;15.30;99.90;;;;;;5033526;28;20524;-44
2022/05/18 04:16:08;;;;;;;2.87;2.20;;;15.20;99.90;;;;;;5033869;28;20260;-43
2022/05/18 04:18:34;;;;;;;3.93;2.80;;;15.30;99.90;;;;;;5033263;28;20203;-46
2022/05/18 04:21:01;;;;;;;4.30;2.27;;;15.30;99.90;;;;;;5033362;28;20223;-44
2022/05/18 04:23:27;;;;;;;4.27;2.43;;;15.30;99.90;;;;;;5033556;28;20549;-45
2022/05/18 04:25:53;;;;;;;4.70;2.43;;;15.30;99.90;;;;;;5033571;28;20177;-45
2022/05/18 04:28:19;;;;;;;4.27;2.30;;;15.30;99.90;;;;;;5033152;28;20216;-44
2022/05/18 04:30:47;;;;;;;2.87;2.17;;;15.30;99.90;;;;;;5033133;28;20667;-44
2022/05/18 04:33:19;;;;;;;4.27;2.20;;;15.20;99.90;;;;;;5033542;28;20187;-45
2022/05/18 04:35:45;;;;;;;5.50;2.40;;;15.30;99.90;;;;;;5033740;28;20168;-44
2022/05/18 04:38:10;;;;;;;2.37;2.17;;;15.30;99.90;;;;;;5032952;28;20213;-43
2022/05/18 04:40:36;;;;;;;4.03;2.20;;;15.40;99.90;;;;;;5034968;28;20199;-44
2022/05/18 04:43:02;;;;;;;2.80;2.03;;;15.40;99.90;;;;;;5034617;28;20173;-45
2022/05/18 04:45:29;;;;;;;5.70;2.50;;;15.50;99.90;;;;;;5033271;28;20660;-45
2022/05/18 04:47:54;;;;;;;6.50;2.77;;;15.50;99.90;;;;;;5031791;28;20208;-42
2022/05/18 04:50:21;;;;;;;3.80;2.60;;;15.50;99.90;;;;;;5033093;28;20552;-43
2022/05/18 04:52:47;;;;;;;3.60;2.60;;;15.60;99.90;;;;;;5033565;28;20220;-45
2022/05/18 04:55:13;;;;;;;4.17;2.47;;;15.60;99.90;;;;;;5033723;28;20181;-47
2022/05/18 04:57:39;;;;;;;4.00;2.13;;;15.60;99.90;;;;;;5033862;28;20220;-45
2022/05/18 05:00:08;;;;;;;2.80;2.50;;;15.70;99.90;;;;;;5034052;28;20267;-44
2022/05/18 05:02:35;;;;;;;5.00;2.60;;;15.70;99.90;;;;;;5035225;28;20227;-45
2022/05/18 05:05:01;;;;;;;3.87;2.43;;;15.80;99.90;;;;;;5035026;28;20177;-42
2022/05/18 05:07:27;;;;;;;5.00;2.47;;;15.80;99.90;;;;;;5033239;28;20193;-44
2022/05/18 05:09:52;;;;;;;4.90;2.73;;;15.90;99.90;;;;;;5032988;28;20206;-45
2022/05/18 05:12:21;;;;;;;3.40;2.60;;;15.90;99.90;;;;;;5033642;28;20540;-45
2022/05/18 05:14:46;;;;;;;5.60;2.70;;;16.00;99.90;;;;;;5033049;28;20238;-43
2022/05/18 05:17:12;;;;;;;3.53;2.30;;;16.10;99.90;;;;;;5031652;28;20217;-43
2022/05/18 05:19:38;;;;;;;3.40;2.40;;;16.10;99.90;;;;;;5032994;28;20668;-44
2022/05/18 05:22:04;;;;;;;4.93;2.40;;;16.20;99.90;;;;;;5033054;28;20181;-44
2022/05/18 05:24:30;;;;;;;4.10;2.60;;;16.30;99.90;;;;;;5035228;28;20169;-43
2022/05/18 05:26:55;;;;;;;5.57;2.60;;;16.40;99.90;;;;;;5036906;28;20215;-41
2022/05/18 05:29:21;;;;;;;3.97;2.67;;;16.50;99.90;;;;;;5037255;28;20640;-43
2022/05/18 05:31:46;;;;;;;2.77;2.50;;;16.60;99.90;;;;;;5036669;28;20266;-41
2022/05/18 05:34:13;;;;;;;5.40;2.80;;;16.80;99.90;;;;;;5036229;28;20184;-45
2022/05/18 05:36:38;;;;;;;4.60;2.53;;;16.90;99.90;;;;;;5036292;28;20212;-44
2022/05/18 05:39:04;;;;;;;3.73;2.47;;;17.00;99.90;;;;;;5036826;28;20189;-44
2022/05/18 05:41:29;;;;;;;3.70;2.40;;;17.10;99.90;;;;;;5034710;28;20655;-43
2022/05/18 05:43:57;;;;;;;4.73;2.50;;;17.20;99.90;;;;;;5034642;28;20177;-41
2022/05/18 05:46:27;;;;;;;7.23;3.33;;;17.40;99.90;;;;;;5035876;28;20263;-43
2022/05/18 05:48:54;;;;;;;4.10;2.53;;;17.50;99.90;;;;;;5035805;28;20201;-43
2022/05/18 05:51:23;;;;;;;5.37;2.60;;;17.70;99.90;;;;;;5036106;28;20260;-43
2022/05/18 05:53:49;;;;;;;4.13;2.40;;;17.80;99.90;;;;;;5035942;28;20202;-44
2022/05/18 05:56:15;;;;;;;4.37;2.60;;;18.00;99.90;;;;;;5035717;28;20189;-44
2022/05/18 05:58:43;;;;;;;3.93;2.57;;;18.10;99.90;;;;;;5035595;28;20254;-43
2022/05/18 06:01:10;;;;;;;9.13;2.73;;;18.30;99.90;;;;;;5035534;28;20181;-45
2022/05/18 06:03:36;;;;;;;5.77;2.70;;;18.40;99.90;;;;;;5035634;28;20188;-45
2022/05/18 06:06:03;;;;;;;6.57;2.90;;;18.60;99.90;;;;;;5035517;28;20177;-42
2022/05/18 06:08:30;;;;;;;4.27;2.93;;;18.80;99.90;;;;;;5035298;28;20288;-44
2022/05/18 06:10:57;;;;;;;5.47;2.13;;;19.00;99.90;;;;;;5035567;28;20165;-45
2022/05/18 06:13:23;;;;;;;4.17;2.20;;;19.30;99.90;;;;;;5035677;28;20173;-45
2022/05/18 06:15:49;;;;;;;4.83;3.37;;;19.60;99.90;;;;;;5035628;28;20656;-44
2022/05/18 06:18:15;;;;;;;2.57;2.10;;;19.70;99.90;;;;;;5035277;28;20262;-45
2022/05/18 06:20:41;;;;;;;7.47;2.50;;;20.00;99.90;;;;;;5035207;28;20185;-44
2022/05/18 06:23:08;;;;;;;5.83;2.47;;;20.40;99.90;;;;;;5035513;28;20191;-44
2022/05/18 06:25:35;;;;;;;3.47;2.33;;;20.70;99.90;;;;;;5035344;28;20169;-46
2022/05/18 06:28:01;;;;;;;3.73;2.13;;;21.00;99.90;;;;;;5035552;28;20615;-43
2022/05/18 06:30:27;;;;;;;4.13;2.20;;;21.30;99.90;;;;;;5035183;28;20652;-43
2022/05/18 06:32:53;;;;;;;6.13;2.00;;;21.60;99.90;;;;;;5033799;28;20183;-45
2022/05/18 06:35:18;;;;;;;4.43;2.03;;;21.90;99.90;;;;;;5035143;28;20216;-44
2022/05/18 06:37:44;;;;;;;7.03;2.03;;;22.20;99.90;;;;;;5035172;28;20742;-43
2022/05/18 06:40:10;;;;;;;4.73;2.13;;;22.60;99.90;;;;;;5035141;28;20574;-43
2022/05/18 06:42:37;;;;;;;3.10;2.10;;;22.80;99.90;;;;;;5035355;28;20268;-46
2022/05/18 06:45:04;;;;;;;4.63;2.43;;;22.80;99.90;;;;;;5035133;28;20275;-43
2022/05/18 06:47:31;;;;;;;2.57;2.30;;;22.70;99.90;;;;;;5034605;28;20196;-44
2022/05/18 06:49:57;;;;;;;8.73;2.20;;;22.70;99.90;;;;;;5034605;28;20215;-44
2022/05/18 06:52:22;;;;;;;4.17;2.23;;;23.00;99.90;;;;;;5034675;28;20185;-45
2022/05/18 06:54:48;;;;;;;7.53;2.30;;;23.10;99.90;;;;;;5034673;28;20677;-45
2022/05/18 06:57:14;;;;;;;8.10;2.33;;;23.20;99.90;;;;;;5034985;28;20228;-44
2022/05/18 06:59:40;;;;;;;7.57;2.30;;;23.20;99.90;;;;;;5034550;28;20173;-44
2022/05/18 07:02:06;;;;;;;3.23;1.97;;;23.40;99.90;;;;;;5034709;28;20169;-44
2022/05/18 07:04:32;;;;;;;4.20;2.07;;;23.50;99.90;;;;;;5034371;28;20180;-44
2022/05/18 07:07:00;;;;;;;5.70;1.90;;;23.70;99.90;;;;;;5034908;28;20181;-44
2022/05/18 07:09:26;;;;;;;3.77;1.90;;;23.80;99.90;;;;;;5034303;28;20219;-43
2022/05/18 07:11:53;;;;;;;2.23;1.53;;;24.00;99.90;;;;;;5034208;28;20185;-43
2022/05/18 07:14:21;;;;;;;4.63;2.33;;;24.10;99.90;;;;;;5034290;28;20184;-45
2022/05/18 07:16:47;;;;;;;6.70;2.00;;;24.30;99.90;;;;;;5034920;28;20666;-37
2022/05/18 07:19:14;;;;;;;5.67;2.00;;;24.50;99.90;;;;;;5034085;28;20173;-39
2022/05/18 07:21:40;;;;;;;8.10;1.90;;;24.70;99.90;;;;;;5034037;28;20547;-40
2022/05/18 07:24:07;;;;;;;6.83;1.83;;;24.90;99.90;;;;;;5034042;28;20177;-41
2022/05/18 07:26:34;;;;;;;7.50;2.00;;;25.00;99.90;;;;;;5034184;28;20660;-40
2022/05/18 07:28:59;;;;;;;8.57;1.90;;;25.20;99.90;;;;;;5034037;28;20275;-42
2022/05/18 07:31:25;;;;;;;5.33;1.87;;;25.20;99.90;;;;;;5034298;28;20239;-41
2022/05/18 07:33:51;;;;;;;7.03;1.90;;;25.40;99.90;;;;;;5034170;28;20550;-38
2022/05/18 07:36:18;;;;;;;6.37;1.83;;;25.50;99.90;;;;;;5033775;28;20192;-38
2022/05/18 07:38:44;;;;;;;5.57;1.90;;;25.50;99.90;;;;;;5033745;28;20203;-40
2022/05/18 07:41:13;;;;;;;6.00;2.07;;;25.60;99.90;;;;;;5033826;28;20180;-38
2022/05/18 07:43:39;;;;;;;6.83;2.20;;;25.70;99.90;;;;;;5033967;28;20256;-40
2022/05/18 07:46:07;;;;;;;4.87;2.00;;;25.80;99.90;;;;;;5033639;28;20173;-40
2022/05/18 07:48:33;;;;;;;4.53;2.10;;;25.90;99.90;;;;;;5033429;28;20561;-40
2022/05/18 07:50:59;;;;;;;3.13;1.87;;;26.00;99.90;;;;;;5033670;28;20181;-39
2022/05/18 07:53:25;;;;;;;6.87;2.17;;;25.90;99.90;;;;;;5033935;28;20695;-41
2022/05/18 07:55:51;;;;;;;3.73;1.60;;;26.00;99.90;;;;;;5034332;28;20188;-40
2022/05/18 07:58:19;;;;;;;6.57;2.07;;;26.20;99.90;;;;;;5033732;28;20212;-40
2022/05/18 08:00:46;;;;;;;4.00;1.73;;;26.30;99.90;;;;;;5033834;28;20181;-41
2022/05/18 08:03:12;;;;;;;7.70;1.60;;;26.50;99.90;;;;;;5033534;28;20230;-41
2022/05/18 08:05:42;;;;;;;9.43;2.10;;;26.70;99.90;;;;;;5033706;28;20181;-41
2022/05/18 08:08:12;;;;;;;5.33;1.70;;;26.80;99.90;;;;;;5032475;28;20583;-42
2022/05/18 08:16:08;;;;;;;6.80;2.27;;;27.30;99.90;;;;;;5033538;28;20215;-40
2022/05/18 08:18:34;;;;;;;10.77;1.90;;;27.50;99.90;;;;;;5033636;28;20251;-41
2022/05/18 08:20:59;;;;;;;8.30;1.90;;;27.60;99.90;;;;;;5033703;28;20641;-38
2022/05/18 08:23:25;;;;;;;5.40;2.00;;;27.80;99.90;;;;;;5033618;28;20230;-39
2022/05/18 08:25:54;;;;;;;9.47;2.43;;;27.80;99.90;;;;;;5033493;28;20234;-40
2022/05/18 08:28:20;;;;;;;9.73;2.00;;;27.80;99.90;;;;;;5033406;28;20208;-38
2022/05/18 08:30:46;;;;;;;7.83;2.00;;;28.00;99.90;;;;;;5033495;28;20567;-40
2022/05/18 08:33:11;;;;;;;5.20;2.03;;;28.10;99.90;;;;;;5033427;28;20277;-40
2022/05/18 08:35:39;;;;;;;6.00;1.90;;;28.30;99.90;;;;;;5033241;28;20615;-39
2022/05/18 08:38:06;;;;;;;6.30;2.03;;;28.30;99.90;;;;;;5033581;28;20212;-41
2022/05/18 08:40:43;;;;;;;5.73;2.37;;;28.40;99.90;;;;;;5033146;28;20731;-42
2022/05/18 08:43:12;;;;;;;6.33;2.13;;;28.60;99.90;;;;;;5033875;28;20527;-47
2022/05/18 08:45:45;;;;;;;3.53;1.80;;;28.80;99.90;;;;;;5034186;28;20258;-46
2022/05/18 08:48:29;;;;;;;5.10;2.00;;;28.90;99.90;;;;;;5033292;28;20251;-46
2022/05/18 08:51:03;;;;;;;5.37;1.93;;;29.10;99.90;;;;;;5033288;28;20195;-45
2022/05/18 08:53:46;;;;;;;5.43;1.70;;;29.30;99.90;;;;;;5032992;28;20163;-45
2022/05/18 08:56:24;;;;;;;5.93;2.07;;;29.30;99.90;;;;;;5031882;28;20181;-45
2022/05/18 08:58:51;;;;;;;6.60;1.80;;;29.40;99.90;;;;;;5034173;28;20197;-44
2022/05/18 09:01:20;;;;;;;12.47;2.60;;;29.60;99.90;;;;;;5038368;28;20203;-46
2022/05/18 09:04:08;;;;;;;4.20;1.50;;;29.60;99.90;;;;;;5038242;28;20196;-47
2022/05/18 09:06:39;;;;;;;9.20;2.23;;;29.50;99.90;;;;;;5037053;28;20172;-45
2022/05/18 09:11:51;;;;;;;2.78;1.73;;;29.60;99.90;;;;;;5036579;28;20180;-45
2022/05/18 09:14:20;;;;;;;4.88;1.63;;;29.70;99.90;;;;;;5036798;28;20181;-46
2022/05/18 09:17:04;;;;;;;4.55;1.83;;;29.60;99.90;;;;;;5036693;28;20204;-45
2022/05/18 09:19:50;;;;;;;7.13;2.03;;;29.50;99.90;;;;;;5036750;28;20188;-46
2022/05/18 09:22:34;;;;;;;5.32;1.70;;;29.30;99.90;;;;;;5036463;28;20165;-45
2022/05/18 09:25:27;;;;;;;5.60;1.83;;;29.20;99.90;;;;;;5036453;28;20637;-45
2022/05/18 09:28:16;;;;;;;4.63;1.83;;;29.10;99.90;;;;;;5036178;28;20232;-44
2022/05/18 09:30:50;;;;;;;5.07;1.85;;;29.00;99.90;;;;;;5036408;28;20248;-46
2022/05/18 09:33:28;;;;;;;5.03;2.00;;;28.60;99.90;;;;;;5036164;28;20204;-45
2022/05/18 09:36:26;;;;;;;5.60;2.13;;;28.50;99.90;;;;;;5036196;28;20304;-45
2022/05/18 09:39:08;;;;;;;7.72;2.17;;;28.50;99.90;;;;;;5014932;28;20221;-43
2022/05/18 09:41:50;;;;;;;6.85;2.10;;;28.60;99.90;;;;;;5036302;28;20172;-46
2022/05/18 09:44:30;;;;;;;2.83;1.80;;;28.90;99.90;;;;;;5036023;28;20165;-45
2022/05/18 09:46:58;;;;;;;3.67;2.00;;;28.70;99.90;;;;;;5036170;28;20188;-45
2022/05/18 09:49:30;;;;;;;7.43;1.95;;;28.70;99.90;;;;;;5035872;28;20204;-46
2022/05/18 09:51:59;;;;;;;3.33;1.80;;;28.90;99.90;;;;;;5034654;28;20660;-47
2022/05/18 09:54:25;;;;;;;4.93;1.88;;;28.80;99.90;;;;;;5035794;28;20181;-46
2022/05/18 09:57:17;;;;;;;3.67;1.90;;;29.10;99.90;;;;;;5035803;28;20212;-46
2022/05/18 09:59:47;;;;;;;2.42;1.90;;;29.30;99.90;;;;;;5030107;28;20196;-45
2022/05/18 10:07:51;;;;;;;4.93;2.05;;;29.00;99.90;;;;;;5036215;28;20678;-45
2022/05/18 10:10:19;;;;;;;4.82;1.95;;;29.20;99.90;;;;;;5033838;28;20196;-46
2022/05/18 10:13:06;;;;;;;12.80;2.53;;;29.20;99.90;;;;;;5035750;28;20255;-45
2022/05/18 10:15:43;;;;;;;2.30;1.77;;;29.00;99.90;;;;;;5035900;28;20220;-46
2022/05/18 10:18:36;;;;;;;2.97;1.77;;;28.70;99.90;;;;;;5035749;28;20212;-45
2022/05/18 10:21:20;;;;;;;9.30;2.28;;;28.70;99.90;;;;;;5035394;28;20153;-46
2022/05/18 10:24:22;;;;;;;4.43;2.05;;;28.70;99.90;;;;;;5035498;28;20161;-46
2022/05/18 10:27:11;;;;;;;9.05;2.15;;;28.90;99.90;;;;;;5035072;28;20259;-45
2022/05/18 10:29:37;;;;;;;2.60;2.00;;;29.00;99.90;;;;;;5035370;28;20157;-46
2022/05/18 10:32:22;;;;;;;2.67;1.70;;;29.00;99.90;;;;;;5035171;28;20181;-47
2022/05/18 10:34:50;;;;;;;5.90;1.92;;;29.10;99.90;;;;;;5035274;28;20154;-45
2022/05/18 10:37:37;;;;;;;3.03;1.73;;;29.30;99.90;;;;;;5035134;28;20734;-46
2022/05/18 10:40:18;;;;;;;6.68;2.10;;;29.50;99.90;;;;;;5034942;28;20180;-47
2022/05/18 10:42:48;;;;;;;3.70;2.05;;;29.80;99.90;;;;;;5035208;28;20165;-45
2022/05/18 10:45:34;;;;;;;4.38;2.20;;;29.90;99.90;;;;;;5035288;28;20169;-46
2022/05/18 10:48:22;;;;;;;2.30;1.88;;;29.80;99.90;;;;;;5034841;28;20262;-46
2022/05/18 10:50:48;;;;;;;5.90;2.10;;;29.70;99.90;;;;;;5034798;28;20165;-47
2022/05/18 10:53:15;;;;;;;3.65;2.30;;;29.80;99.90;;;;;;5034920;28;20196;-46
2022/05/18 10:56:00;;;;;;;2.67;2.10;;;30.00;99.90;;;;;;5033411;28;20263;-45
2022/05/18 10:58:33;;;;;;;8.25;2.30;;;30.10;99.90;;;;;;5034796;28;20680;-45
2022/05/18 11:01:04;;;;;;;3.22;2.10;;;30.10;99.90;;;;;;5034588;28;20677;-45
2022/05/18 11:03:54;;;;;;;2.17;1.98;;;30.00;99.90;;;;;;5034552;28;20172;-46
2022/05/18 11:06:40;;;;;;;3.50;1.98;;;29.90;99.90;;;;;;5034918;28;20177;-46
2022/05/18 11:09:20;;;;;;;4.15;2.40;;;29.90;99.90;;;;;;5034544;28;20188;-46
2022/05/18 11:12:14;;;;;;;2.75;1.85;;;29.90;99.90;;;;;;5034998;28;20173;-48
2022/05/18 11:15:03;;;;;;;3.10;1.70;;;30.00;99.90;;;;;;5034659;28;20168;-47
2022/05/18 11:17:51;;;;;;;5.50;1.90;;;30.40;99.90;;;;;;5034559;28;20219;-46
2022/05/18 11:20:49;;;;;;;3.00;1.65;;;30.80;99.90;;;;;;5034683;28;20184;-44
2022/05/18 11:23:45;;;;;;;2.85;1.98;;;31.10;99.90;;;;;;5034057;28;20630;-46
2022/05/18 11:26:50;;;;;;;7.20;1.80;;;31.30;99.90;;;;;;5034342;28;20645;-44
2022/05/18 11:29:16;;;;;;;2.70;1.77;;;31.20;99.90;;;;;;5034335;28;20161;-46
2022/05/18 11:31:49;;;;;;;2.60;1.75;;;31.20;99.90;;;;;;5034140;28;20592;-45
2022/05/18 11:34:21;;;;;;;3.50;1.90;;;31.30;99.90;;;;;;5034374;28;20165;-46
2022/05/18 11:37:00;;;;;;;3.05;1.85;;;31.50;99.90;;;;;;5034211;28;20196;-45
2022/05/18 11:39:40;;;;;;;3.95;1.70;;;31.60;99.90;;;;;;5034434;28;20597;-46
2022/05/18 11:42:28;;;;;;;3.08;1.55;;;31.70;99.90;;;;;;5033931;28;20628;-46
2022/05/18 11:45:09;;;;;;;5.65;1.90;;;31.90;99.90;;;;;;5034137;28;20181;-46
2022/05/18 11:48:11;;;;;;;4.82;1.98;;;32.00;99.90;;;;;;5033672;28;20283;-46
2022/05/18 11:50:48;;;;;;;3.50;1.98;;;32.00;99.90;;;;;;5033879;28;20172;-46
2022/05/18 11:53:29;;;;;;;3.03;1.83;;;32.10;99.90;;;;;;5033644;28;20633;-45
2022/05/18 11:55:57;;;;;;;2.72;2.10;;;31.90;99.00;;;;;;5033578;28;20203;-45
2022/05/18 11:58:49;;;;;;;3.78;1.75;;;31.80;99.90;;;;;;5034446;28;20564;-46
2022/05/18 12:01:36;;;;;;;3.53;1.63;;;31.80;99.90;;;;;;5033486;28;20244;-45
2022/05/18 12:04:27;;;;;;;3.28;1.85;;;31.90;99.90;;;;;;5033628;28;20559;-44
2022/05/18 12:07:01;;;;;;;2.20;1.80;;;31.70;99.10;;;;;;5033582;28;20196;-45
2022/05/18 12:09:58;;;;;;;3.05;1.80;;;31.70;97.30;;;;;;5033422;28;20680;-46
2022/05/18 12:12:46;;;;;;;3.47;1.80;;;31.70;99.70;;;;;;5033906;28;20212;-46
2022/05/18 12:15:27;;;;;;;2.42;1.55;;;31.70;99.90;;;;;;5033717;28;20173;-45
2022/05/18 12:18:05;;;;;;;3.25;2.03;;;31.90;99.90;;;;;;5033704;28;20744;-45
2022/05/18 12:20:43;;;;;;;6.78;2.00;;;32.20;99.00;;;;;;5033799;28;20168;-45
2022/05/18 12:23:15;;;;;;;5.20;1.70;;;32.30;99.00;;;;;;5034021;28;20171;-45
2022/05/18 12:25:43;;;;;;;3.05;1.80;;;32.50;99.90;;;;;;5033455;28;20213;-47
2022/05/18 12:28:11;;;;;;;5.70;1.70;;;32.70;99.90;;;;;;5033326;28;20201;-46
2022/05/18 12:30:39;;;;;;;2.50;1.60;;;32.90;99.90;;;;;;5033446;28;20256;-46
2022/05/18 12:33:06;;;;;;;2.03;1.50;;;33.10;99.90;;;;;;5034571;28;20687;-46
2022/05/18 12:35:46;;;;;;;3.05;1.63;;;33.30;99.90;;;;;;5037403;28;20215;-46
2022/05/18 12:38:23;;;;;;;4.70;1.90;;;33.50;99.90;;;;;;5037462;28;20219;-45
2022/05/18 12:41:02;;;;;;;5.25;1.60;;;33.60;99.90;;;;;;5037390;28;20157;-47
2022/05/18 12:43:49;;;;;;;3.22;1.90;;;33.70;99.90;;;;;;5037480;28;20564;-46
2022/05/18 12:46:15;;;;;;;5.13;1.48;;;33.90;99.90;;;;;;5035956;28;20695;-46
2022/05/18 12:48:52;;;;;;;3.95;1.42;;;34.10;99.90;;;;;;5037113;28;20196;-45
2022/05/18 12:51:27;;;;;;;2.42;1.83;;;34.10;98.50;;;;;;5036991;28;20703;-46
2022/05/18 12:53:55;;;;;;;4.50;1.48;;;34.00;99.90;;;;;;5037354;28;20264;-47
2022/05/18 12:56:46;;;;;;;2.60;1.38;;;34.10;99.90;;;;;;5037297;28;20177;-46
2022/05/18 12:59:17;;;;;;;2.10;1.45;;;34.20;99.90;;;;;;5037216;28;20216;-47
2022/05/18 13:01:45;;;;;;;4.85;1.58;;;34.30;96.90;;;;;;5038198;28;20230;-46
2022/05/18 13:04:14;;;;;;;4.25;1.50;;;34.30;99.90;;;;;;5038119;28;20177;-47
2022/05/18 13:06:43;;;;;;;7.05;1.60;;;34.50;98.80;;;;;;5037840;28;20185;-47
2022/05/18 13:09:26;;;;;;;2.47;1.60;;;34.40;96.60;;;;;;5037615;28;20606;-47
2022/05/18 13:12:03;;;;;;;3.85;1.80;;;34.50;99.90;;;;;;5037953;28;20184;-47
2022/05/18 13:14:38;;;;;;;4.57;1.70;;;34.60;99.90;;;;;;5036404;28;20172;-47
2022/05/18 13:17:14;;;;;;;5.60;2.03;;;34.70;99.40;;;;;;5037284;28;20208;-46
2022/05/18 13:19:46;;;;;;;3.78;1.40;;;34.80;98.70;;;;;;5037802;28;20522;-48
2022/05/18 13:22:11;;;;;;;3.13;1.63;;;34.80;99.50;;;;;;5037783;28;20234;-46
2022/05/18 13:24:48;;;;;;;4.10;1.65;;;34.80;95.20;;;;;;5037978;28;20537;-46